Terminal Aerodrome Forecast
Issued by NWS

Home | Current Version | Previous Version | Text Only | Print | Product List | Glossary On
Versions: 1 2 3 4 5 6 7 8 9 10 11 12 13 14 15 16 17 18
481
FTUS43 KGRB 080532
TAFCWA
TAF
KCWA 080532Z 0806/0906 27009KT 6SM -SN SCT006 BKN015
      TEMPO 0806/0810 4SM -SN BKN006
     FM081000 30010G15KT 3SM -SN BKN010
     FM081200 32012G22KT 3SM -SN BR OVC011
      AMD LTD TO CLD VIS AND WND TIL 11Z=

USA.gov is the U.S. government's official web portal to all federal, state and local government web resources and services.